Terminal Aerodrome Forecast
Issued by NWS Charleston, WV

Home | Current Version | Previous Version | Text Only | Print | Product List | Glossary On
Versions: 1 2 3 4 5 6 7 8 9 10 11 12 13 14 15 16 17 18 19 20 21 22
000
FTUS41 KRLX 280500
TAFEKN
TAF
KEKN 280529Z 2806/2906 00000KT 4SM BR BKN020
     FM280900 00000KT 2SM BR BKN015
     FM281300 00000KT P6SM BKN015
     FM281400 VRB03KT P6SM SCT020
     FM290200 00000KT P6SM FEW200
     FM290500 00000KT 5SM BR FEW250=

USA.gov is the U.S. government's official web portal to all federal, state and local government web resources and services.